createdAt,value
2019-01-31T00:00:32.074Z,0.20
2019-01-31T00:03:48.125Z,0.20
2019-01-31T00:06:26.449Z,0.20
2019-01-31T00:09:12.365Z,0.20
2019-01-31T00:11:54.039Z,0.10
2019-01-31T00:14:41.050Z,0.10
2019-01-31T00:17:39.659Z,0.10
2019-01-31T00:20:28.484Z,0.10
2019-01-31T00:23:32.879Z,0.00
2019-01-31T00:26:38.778Z,0.00
2019-01-31T00:29:33.578Z,0.10
2019-01-31T00:32:30.770Z,0.00
2019-01-31T00:35:39.462Z,0.10
2019-01-31T00:38:24.166Z,0.10
2019-01-31T00:41:19.774Z,0.10
2019-01-31T00:44:04.527Z,0.00
2019-01-31T00:46:48.102Z,0.00
2019-01-31T00:49:51.077Z,0.00
2019-01-31T00:52:53.736Z,0.00
2019-01-31T00:55:44.286Z,0.10
2019-01-31T00:58:51.576Z,0.10
2019-01-31T01:01:36.832Z,0.10
2019-01-31T01:04:18.200Z,0.10
2019-01-31T01:07:21.600Z,0.10
2019-01-31T01:09:55.079Z,0.10
2019-01-31T01:12:51.566Z,0.10
2019-01-31T01:15:32.091Z,0.10
2019-01-31T01:18:12.649Z,0.10
2019-01-31T01:21:05.782Z,0.00
2019-01-31T01:23:52.738Z,0.10
2019-01-31T01:26:52.254Z,0.10
2019-01-31T01:29:28.772Z,0.00
2019-01-31T01:32:16.163Z,0.00
2019-01-31T01:35:29.389Z,0.00
2019-01-31T01:38:44.856Z,0.00
2019-01-31T01:42:03.062Z,0.00
2019-01-31T01:45:08.794Z,0.10
2019-01-31T01:48:12.318Z,0.10
2019-01-31T01:51:09.489Z,0.10
2019-01-31T01:54:34.812Z,0.10
2019-01-31T01:57:43.074Z,0.00
2019-01-31T02:00:51.644Z,0.10
2019-01-31T02:03:32.848Z,0.10
2019-01-31T02:06:22.291Z,0.10
2019-01-31T02:09:30.045Z,0.10
2019-01-31T02:12:26.290Z,0.20
2019-01-31T02:15:27.881Z,0.20
2019-01-31T02:18:08.950Z,0.20
2019-01-31T02:21:07.414Z,0.20
2019-01-31T02:24:11.531Z,0.20
2019-01-31T02:27:04.035Z,0.20
2019-01-31T02:29:58.122Z,0.30
2019-01-31T02:33:01.520Z,0.30
2019-01-31T02:36:22.795Z,0.30
2019-01-31T02:39:00.415Z,0.30
2019-01-31T02:41:37.167Z,0.30
2019-01-31T02:44:16.992Z,0.30
2019-01-31T02:47:22.618Z,0.30
2019-01-31T02:50:06.484Z,0.30
2019-01-31T02:53:02.454Z,0.30
2019-01-31T02:56:27.574Z,0.30
2019-01-31T02:59:04.126Z,0.40
2019-01-31T03:02:18.278Z,0.40
2019-01-31T03:05:24.775Z,0.50
2019-01-31T03:08:42.082Z,0.50
2019-01-31T03:11:36.716Z,0.50
2019-01-31T03:14:14.603Z,0.50
2019-01-31T03:17:12.936Z,0.60
2019-01-31T03:20:04.469Z,0.70
2019-01-31T03:22:52.859Z,0.70
2019-01-31T03:26:27.063Z,0.70
2019-01-31T03:29:21.156Z,0.70
2019-01-31T03:32:31.517Z,0.80
2019-01-31T03:35:19.261Z,0.80
2019-01-31T03:38:18.007Z,0.80
2019-01-31T03:41:22.517Z,0.80
2019-01-31T03:44:09.677Z,0.80
2019-01-31T03:47:14.004Z,0.80
2019-01-31T03:50:14.840Z,0.90
2019-01-31T03:53:09.786Z,0.90
2019-01-31T03:56:04.518Z,0.90
2019-01-31T03:59:15.202Z,0.90
2019-01-31T04:02:13.680Z,0.90
2019-01-31T04:05:04.249Z,1.00
2019-01-31T04:07:33.093Z,1.00
2019-01-31T04:10:01.991Z,1.00
2019-01-31T04:12:30.837Z,0.90
2019-01-31T04:14:59.723Z,1.00
2019-01-31T04:17:28.641Z,1.00
2019-01-31T04:19:57.478Z,1.00
2019-01-31T04:22:26.311Z,1.00
2019-01-31T04:24:55.131Z,1.00
2019-01-31T04:27:24.100Z,1.00
2019-01-31T04:29:53.008Z,1.10
2019-01-31T04:32:21.865Z,1.00
2019-01-31T04:34:50.704Z,1.00
2019-01-31T04:37:19.560Z,1.00
2019-01-31T04:39:48.375Z,1.00
2019-01-31T04:42:17.198Z,1.00
2019-01-31T04:44:46.074Z,1.00
2019-01-31T04:47:15.035Z,1.00
2019-01-31T04:49:43.916Z,1.10
2019-01-31T04:52:12.724Z,1.00
2019-01-31T04:54:41.690Z,1.00
2019-01-31T04:57:10.640Z,1.00
2019-01-31T04:59:39.550Z,1.00
2019-01-31T05:02:08.543Z,0.90
2019-01-31T05:04:37.444Z,0.90
2019-01-31T05:07:06.407Z,0.90
2019-01-31T05:09:35.427Z,0.90
2019-01-31T05:12:04.484Z,0.90
2019-01-31T05:14:33.338Z,0.90
2019-01-31T05:17:02.193Z,0.90
2019-01-31T05:19:31.090Z,0.90
2019-01-31T05:22:00.081Z,0.90
2019-01-31T05:24:28.997Z,0.80
2019-01-31T05:26:57.951Z,0.80
2019-01-31T05:29:26.877Z,0.80
2019-01-31T05:31:55.929Z,0.80
2019-01-31T05:34:24.824Z,0.80
2019-01-31T05:36:53.726Z,0.80
2019-01-31T05:39:22.582Z,0.80
2019-01-31T05:41:51.411Z,0.70
2019-01-31T05:44:20.543Z,0.70
2019-01-31T05:46:49.515Z,0.70
2019-01-31T05:49:18.678Z,0.60
2019-01-31T05:51:47.539Z,0.60
2019-01-31T05:54:16.365Z,0.60
2019-01-31T05:56:45.325Z,0.60
2019-01-31T05:59:14.144Z,0.60
2019-01-31T06:01:42.982Z,0.60
2019-01-31T06:04:11.871Z,0.50
2019-01-31T06:06:40.691Z,0.50
2019-01-31T06:09:09.740Z,0.50
2019-01-31T06:11:38.631Z,0.50
2019-01-31T06:14:07.683Z,0.50
2019-01-31T06:16:36.509Z,0.40
2019-01-31T06:19:05.487Z,0.40
2019-01-31T06:21:34.400Z,0.30
2019-01-31T06:24:03.358Z,0.30
2019-01-31T06:26:32.343Z,0.30
2019-01-31T06:29:01.155Z,0.30
2019-01-31T06:31:30.000Z,0.30
2019-01-31T06:33:58.823Z,0.30
2019-01-31T06:36:27.822Z,0.20
2019-01-31T06:38:56.662Z,0.20
2019-01-31T06:41:25.575Z,0.10
2019-01-31T06:43:54.429Z,0.10
2019-01-31T06:46:23.431Z,0.10
2019-01-31T06:48:52.339Z,0.10
2019-01-31T06:51:21.262Z,0.00
2019-01-31T06:53:50.140Z,0.00
2019-01-31T06:56:19.112Z,0.00
2019-01-31T06:58:48.062Z,0.00
2019-01-31T07:01:16.961Z,-0.10
2019-01-31T07:03:45.923Z,-0.20
2019-01-31T07:06:14.851Z,-0.30
2019-01-31T07:08:43.895Z,-0.30
2019-01-31T07:11:12.909Z,-0.30
2019-01-31T07:13:41.928Z,-0.20
2019-01-31T07:16:10.889Z,-0.20
2019-01-31T07:18:39.728Z,-0.30
2019-01-31T07:21:08.554Z,-0.30
2019-01-31T07:23:37.471Z,-0.30
2019-01-31T07:26:06.467Z,-0.30
2019-01-31T07:28:35.458Z,-0.40
2019-01-31T07:31:04.555Z,-0.40
2019-01-31T07:33:33.478Z,-0.50
2019-01-31T07:36:02.456Z,-0.60
2019-01-31T07:38:31.391Z,-0.60
2019-01-31T07:41:00.202Z,-0.60
2019-01-31T07:43:29.045Z,-0.70
2019-01-31T07:45:58.038Z,-0.70
2019-01-31T07:48:26.947Z,-0.80
2019-01-31T07:51:15.071Z,-0.80
2019-01-31T07:53:44.057Z,-0.80
2019-01-31T07:56:12.970Z,-0.80
2019-01-31T07:58:41.799Z,-0.80
2019-01-31T08:01:10.759Z,-0.70
2019-01-31T08:03:40.755Z,-0.70
2019-01-31T08:06:09.851Z,-0.60
2019-01-31T08:08:38.758Z,-0.60
2019-01-31T08:11:07.735Z,-0.50
2019-01-31T08:13:36.576Z,-0.40
2019-01-31T08:16:05.571Z,-0.20
2019-01-31T08:18:34.576Z,0.10
2019-01-31T08:21:03.538Z,0.40
2019-01-31T08:23:32.444Z,0.70
2019-01-31T08:26:01.258Z,0.80
2019-01-31T08:28:30.251Z,0.90
2019-01-31T08:30:59.223Z,1.00
2019-01-31T08:33:28.479Z,1.00
2019-01-31T08:35:57.585Z,1.00
2019-01-31T08:38:26.431Z,1.20
2019-01-31T08:40:55.325Z,1.30
2019-01-31T08:43:24.327Z,1.30
2019-01-31T08:45:53.446Z,1.40
2019-01-31T08:48:22.382Z,1.40
2019-01-31T08:50:51.310Z,1.60
2019-01-31T08:53:20.175Z,1.50
2019-01-31T08:55:49.094Z,1.60
2019-01-31T08:58:17.926Z,1.90
2019-01-31T09:00:46.854Z,1.90
2019-01-31T09:03:15.672Z,2.10
2019-01-31T09:05:44.660Z,2.30
2019-01-31T09:08:13.623Z,2.70
2019-01-31T09:10:42.599Z,3.10
2019-01-31T09:13:12.418Z,3.30
2019-01-31T09:15:41.423Z,3.40
2019-01-31T09:18:10.333Z,3.50
2019-01-31T09:20:45.879Z,3.70
2019-01-31T09:23:45.424Z,3.90
2019-01-31T09:26:33.979Z,3.90
2019-01-31T09:29:31.834Z,4.10
2019-01-31T09:32:49.908Z,3.80
2019-01-31T09:35:59.506Z,4.10
2019-01-31T09:39:14.290Z,4.30
2019-01-31T09:42:26.311Z,4.40
2019-01-31T09:45:47.497Z,4.80
2019-01-31T09:48:51.226Z,4.90
2019-01-31T09:51:55.693Z,5.30
2019-01-31T09:54:55.726Z,5.70
2019-01-31T09:58:23.668Z,6.20
2019-01-31T10:01:27.386Z,6.70
2019-01-31T10:04:17.110Z,7.40
2019-01-31T10:07:32.550Z,8.20
2019-01-31T10:10:47.909Z,8.90
2019-01-31T10:14:02.978Z,8.80
2019-01-31T10:16:39.581Z,9.00
2019-01-31T10:19:29.227Z,9.20
2019-01-31T10:22:29.831Z,8.30
2019-01-31T10:25:30.176Z,8.00
2019-01-31T10:28:15.519Z,8.50
2019-01-31T10:31:15.493Z,8.10
2019-01-31T10:34:14.162Z,7.80
2019-01-31T10:36:57.622Z,7.80
2019-01-31T10:39:51.978Z,6.80
2019-01-31T10:42:36.063Z,6.00
2019-01-31T10:45:25.641Z,5.10
2019-01-31T10:48:42.143Z,4.60
2019-01-31T10:51:37.182Z,4.10
2019-01-31T10:54:14.264Z,3.50
2019-01-31T10:57:05.849Z,3.20
2019-01-31T10:59:57.382Z,3.00
2019-01-31T11:02:52.679Z,2.80
2019-01-31T11:05:46.090Z,3.00
2019-01-31T11:08:43.441Z,3.30
2019-01-31T11:11:26.578Z,3.80
2019-01-31T11:14:08.428Z,4.30
2019-01-31T11:17:10.319Z,4.50
2019-01-31T11:20:06.072Z,4.60
2019-01-31T11:23:02.179Z,4.80
2019-01-31T11:26:03.273Z,4.90
2019-01-31T11:29:09.474Z,4.80
2019-01-31T11:32:25.546Z,4.80
2019-01-31T11:35:31.423Z,5.10
2019-01-31T11:38:09.473Z,5.50
2019-01-31T11:41:17.306Z,5.10
2019-01-31T11:44:38.024Z,4.80
2019-01-31T11:47:47.066Z,4.10
2019-01-31T11:50:50.900Z,3.50
2019-01-31T11:53:48.295Z,3.20
2019-01-31T11:56:40.603Z,3.10
2019-01-31T11:59:09.581Z,3.10
2019-01-31T12:01:38.617Z,3.10
2019-01-31T12:04:15.340Z,3.20
2019-01-31T12:06:44.257Z,3.20
2019-01-31T12:09:15.633Z,3.30
2019-01-31T12:11:44.531Z,3.30
2019-01-31T12:14:13.515Z,3.30
2019-01-31T12:16:42.392Z,3.50
2019-01-31T12:19:11.502Z,3.60
2019-01-31T12:21:40.567Z,4.10
2019-01-31T12:24:16.074Z,4.80
2019-01-31T12:26:40.611Z,5.00
2019-01-31T12:29:09.598Z,5.20
2019-01-31T12:31:38.541Z,5.20
2019-01-31T12:34:07.537Z,5.00
2019-01-31T12:36:36.514Z,5.20
2019-01-31T12:39:08.859Z,5.40
2019-01-31T12:41:37.763Z,5.60
2019-01-31T12:44:06.795Z,5.60
2019-01-31T12:46:35.706Z,5.80
2019-01-31T12:49:04.614Z,5.60
2019-01-31T12:51:33.592Z,5.20
2019-01-31T12:54:02.555Z,4.80
2019-01-31T12:56:31.545Z,4.80
2019-01-31T12:59:00.368Z,4.60
2019-01-31T13:01:29.357Z,4.50
2019-01-31T13:03:58.263Z,4.50
2019-01-31T13:06:27.265Z,4.60
2019-01-31T13:08:56.225Z,4.60
2019-01-31T13:11:25.209Z,4.70
2019-01-31T13:13:54.102Z,4.70
2019-01-31T13:16:23.027Z,4.90
2019-01-31T13:18:51.983Z,5.10
2019-01-31T13:21:21.070Z,5.10
2019-01-31T13:23:50.106Z,5.00
2019-01-31T13:26:19.026Z,4.80
2019-01-31T13:28:48.005Z,4.70
2019-01-31T13:31:16.911Z,4.80
2019-01-31T13:33:46.768Z,4.70
2019-01-31T13:36:16.341Z,4.60
2019-01-31T13:38:45.151Z,4.40
2019-01-31T13:41:14.119Z,4.30
2019-01-31T13:43:43.082Z,4.20
2019-01-31T13:46:12.095Z,4.20
2019-01-31T13:48:41.078Z,4.10
2019-01-31T13:51:10.256Z,4.00
2019-01-31T13:53:39.249Z,4.00
2019-01-31T13:56:09.098Z,4.00
2019-01-31T13:58:38.005Z,3.80
2019-01-31T14:01:07.674Z,3.70
2019-01-31T14:03:36.631Z,3.70
2019-01-31T14:06:05.553Z,3.60
2019-01-31T14:08:34.530Z,3.60
2019-01-31T14:11:03.421Z,3.70
2019-01-31T14:13:32.295Z,3.70
2019-01-31T14:16:01.212Z,3.70
2019-01-31T14:18:30.188Z,3.70
2019-01-31T14:20:59.076Z,3.60
2019-01-31T14:23:27.922Z,3.40
2019-01-31T14:25:56.833Z,3.40
2019-01-31T14:28:25.731Z,3.30
2019-01-31T14:30:54.653Z,3.30
2019-01-31T14:33:25.130Z,3.20
2019-01-31T14:35:54.675Z,3.10
2019-01-31T14:38:23.693Z,3.00
2019-01-31T14:40:52.611Z,3.00
2019-01-31T14:43:21.511Z,3.00
2019-01-31T14:45:50.508Z,2.90
2019-01-31T14:48:19.400Z,2.80
2019-01-31T14:50:48.362Z,2.90
2019-01-31T14:53:17.342Z,2.80
2019-01-31T14:55:46.212Z,2.80
2019-01-31T14:58:15.299Z,2.80
2019-01-31T15:00:44.270Z,2.70
2019-01-31T15:03:13.245Z,2.80
2019-01-31T15:05:42.291Z,2.80
2019-01-31T15:08:11.204Z,2.80
2019-01-31T15:10:41.129Z,2.70
2019-01-31T15:13:10.049Z,2.70
2019-01-31T15:15:39.114Z,2.60
2019-01-31T15:18:08.864Z,2.50
2019-01-31T15:20:46.872Z,2.50
2019-01-31T15:23:15.810Z,2.40
2019-01-31T15:25:44.786Z,2.40
2019-01-31T15:28:13.682Z,2.30
2019-01-31T15:30:42.534Z,2.30
2019-01-31T15:33:13.225Z,2.30
2019-01-31T15:35:43.037Z,2.20
2019-01-31T15:38:12.008Z,2.20
2019-01-31T15:40:43.638Z,2.10
2019-01-31T15:43:12.634Z,2.10
2019-01-31T15:45:41.622Z,2.10
2019-01-31T15:48:10.994Z,2.10
2019-01-31T15:50:40.184Z,2.20
2019-01-31T15:53:09.238Z,2.20
2019-01-31T15:55:38.259Z,2.30
2019-01-31T15:58:08.229Z,2.30
2019-01-31T16:00:44.062Z,2.30
2019-01-31T16:03:23.526Z,2.30
2019-01-31T16:05:52.697Z,2.40
2019-01-31T16:08:22.009Z,2.30
2019-01-31T16:10:50.968Z,2.30
2019-01-31T16:13:19.932Z,2.30
2019-01-31T16:15:49.055Z,2.30
2019-01-31T16:18:18.184Z,2.20
2019-01-31T16:20:47.059Z,2.20
2019-01-31T16:23:16.647Z,2.20
2019-01-31T16:25:47.858Z,2.10
2019-01-31T16:28:17.002Z,2.10
2019-01-31T16:30:45.947Z,2.00
2019-01-31T16:33:14.872Z,2.10
2019-01-31T16:35:44.324Z,2.00
2019-01-31T16:38:13.364Z,2.00
2019-01-31T16:40:42.324Z,2.00
2019-01-31T16:43:33.230Z,2.00
2019-01-31T16:46:02.222Z,2.00
2019-01-31T16:48:31.114Z,1.90
2019-01-31T16:51:08.213Z,1.90
2019-01-31T16:54:59.544Z,1.90
2019-01-31T17:01:08.976Z,1.70
2019-01-31T17:14:44.774Z,1.60
2019-01-31T17:23:06.241Z,1.40
2019-01-31T17:28:24.206Z,1.20
2019-01-31T17:30:53.170Z,1.10
2019-01-31T17:33:21.985Z,1.00
2019-01-31T17:35:50.795Z,1.00
2019-01-31T17:38:19.947Z,0.90
2019-01-31T17:40:51.002Z,0.80
2019-01-31T17:43:22.162Z,0.80
2019-01-31T17:45:51.815Z,0.80
2019-01-31T17:48:20.597Z,0.60
2019-01-31T17:50:49.556Z,0.60
2019-01-31T17:53:18.544Z,0.60
2019-01-31T17:55:47.605Z,0.60
2019-01-31T17:58:16.592Z,0.60
2019-01-31T18:00:54.349Z,0.60
2019-01-31T18:03:23.465Z,0.60
2019-01-31T18:05:52.499Z,0.60
2019-01-31T18:08:21.496Z,0.60
2019-01-31T18:10:50.431Z,0.70
2019-01-31T18:13:19.698Z,0.80
2019-01-31T18:15:48.765Z,0.80
2019-01-31T18:18:17.843Z,0.90
2019-01-31T18:20:46.927Z,1.00
2019-01-31T18:23:16.031Z,1.10
2019-01-31T18:25:44.950Z,1.10
2019-01-31T18:28:15.017Z,1.20
2019-01-31T18:30:45.433Z,1.30
2019-01-31T18:33:14.343Z,1.30
2019-01-31T18:35:43.318Z,1.30
2019-01-31T18:38:12.272Z,1.40
2019-01-31T18:40:41.417Z,1.40
2019-01-31T18:43:10.365Z,1.40
2019-01-31T18:45:39.341Z,1.40
2019-01-31T18:48:08.859Z,1.40
2019-01-31T18:50:40.831Z,1.40
2019-01-31T18:53:10.041Z,1.40
2019-01-31T18:55:39.412Z,1.40
2019-01-31T18:58:10.746Z,1.40
2019-01-31T19:00:51.909Z,1.40
2019-01-31T19:03:22.743Z,1.50
2019-01-31T19:05:52.424Z,1.40
2019-01-31T19:08:22.375Z,1.40
2019-01-31T19:10:52.534Z,1.40
2019-01-31T19:13:21.594Z,1.50
2019-01-31T19:15:50.567Z,1.40
2019-01-31T19:18:19.444Z,1.50
2019-01-31T19:20:48.633Z,1.40
2019-01-31T19:23:17.682Z,1.40
2019-01-31T19:25:47.315Z,1.40
2019-01-31T19:28:16.546Z,1.40
2019-01-31T19:30:45.601Z,1.40
2019-01-31T19:33:14.835Z,1.40
2019-01-31T19:35:43.749Z,1.40
2019-01-31T19:38:13.167Z,1.30
2019-01-31T19:40:44.318Z,1.40
2019-01-31T19:43:13.344Z,1.40
2019-01-31T19:45:47.694Z,1.40
2019-01-31T19:48:17.461Z,1.30
2019-01-31T19:50:46.542Z,1.30
2019-01-31T19:53:15.663Z,1.30
2019-01-31T19:55:44.990Z,1.30
2019-01-31T19:58:14.042Z,1.20
2019-01-31T20:00:43.714Z,1.20
2019-01-31T20:03:12.758Z,1.20
2019-01-31T20:05:42.402Z,1.20
2019-01-31T20:08:12.133Z,1.20
2019-01-31T20:10:42.310Z,1.20
2019-01-31T20:13:11.419Z,1.20
2019-01-31T20:15:41.998Z,1.20
2019-01-31T20:18:12.150Z,1.20
2019-01-31T20:20:42.869Z,1.20
2019-01-31T20:23:12.327Z,1.20
2019-01-31T20:25:41.583Z,1.20
2019-01-31T20:30:58.255Z,1.20
2019-01-31T20:33:35.667Z,1.20
2019-01-31T20:36:07.208Z,1.20
2019-01-31T20:38:36.459Z,1.20
2019-01-31T20:41:06.089Z,1.20
2019-01-31T20:43:37.235Z,1.30
2019-01-31T20:46:08.991Z,1.30
2019-01-31T20:48:39.107Z,1.30
2019-01-31T20:51:12.693Z,1.30
2019-01-31T20:53:43.261Z,1.30
2019-01-31T20:56:12.754Z,1.20
2019-01-31T20:58:44.695Z,1.10
2019-01-31T21:01:18.378Z,1.10
2019-01-31T21:03:49.452Z,1.00
2019-01-31T21:06:18.779Z,0.90
2019-01-31T21:08:48.924Z,0.90
2019-01-31T21:11:18.337Z,0.90
2019-01-31T21:13:47.298Z,0.80
2019-01-31T21:16:17.594Z,0.90
2019-01-31T21:18:46.583Z,0.80
2019-01-31T21:21:15.755Z,0.90
2019-01-31T21:23:44.705Z,0.90
2019-01-31T21:26:13.967Z,0.90
2019-01-31T21:28:42.906Z,0.90
2019-01-31T21:31:11.791Z,0.90
2019-01-31T21:33:40.683Z,0.90
2019-01-31T21:36:09.677Z,0.90
2019-01-31T21:38:38.639Z,0.80
2019-01-31T21:41:07.602Z,0.80
2019-01-31T21:43:36.723Z,0.80
2019-01-31T21:46:05.814Z,0.80
2019-01-31T21:48:34.756Z,0.80
2019-01-31T21:51:03.825Z,0.80
2019-01-31T21:53:32.837Z,0.80
2019-01-31T21:56:01.876Z,0.80
2019-01-31T21:58:30.806Z,0.80
2019-01-31T22:00:59.734Z,0.80
2019-01-31T22:03:29.814Z,0.80
2019-01-31T22:05:58.762Z,0.80
2019-01-31T22:08:27.690Z,0.70
2019-01-31T22:10:56.635Z,0.70
2019-01-31T22:13:25.588Z,0.60
2019-01-31T22:15:54.512Z,0.60
2019-01-31T22:18:23.542Z,0.50
2019-01-31T22:20:52.487Z,0.40
2019-01-31T22:23:21.426Z,0.40
2019-01-31T22:25:50.309Z,0.30
2019-01-31T22:28:19.196Z,0.30
2019-01-31T22:30:48.160Z,0.20
2019-01-31T22:33:16.974Z,0.20
2019-01-31T22:35:45.771Z,0.10
2019-01-31T22:38:14.577Z,0.10
2019-01-31T22:40:43.367Z,-0.10
2019-01-31T22:43:12.179Z,-0.10
2019-01-31T22:45:41.065Z,-0.10
2019-01-31T22:48:10.659Z,-0.10
2019-01-31T22:50:39.622Z,-0.20
2019-01-31T22:53:08.430Z,-0.20
2019-01-31T22:55:37.316Z,-0.20
2019-01-31T22:58:06.941Z,-0.20
2019-01-31T23:01:19.111Z,-0.20
2019-01-31T23:03:48.095Z,-0.30
2019-01-31T23:06:17.815Z,-0.30
2019-01-31T23:08:46.782Z,-0.30
2019-01-31T23:11:15.731Z,-0.30
2019-01-31T23:13:44.641Z,-0.30
2019-01-31T23:16:13.581Z,-0.20
2019-01-31T23:18:42.469Z,-0.30
2019-01-31T23:21:11.344Z,-0.40
2019-01-31T23:23:40.231Z,-0.40
2019-01-31T23:26:09.186Z,-0.50
2019-01-31T23:28:38.007Z,-0.50
2019-01-31T23:31:06.874Z,-0.50
2019-01-31T23:33:35.709Z,-0.60
2019-01-31T23:36:05.319Z,-0.60
2019-01-31T23:38:34.186Z,-0.60
2019-01-31T23:41:02.995Z,-0.60
2019-01-31T23:43:31.862Z,-0.60
2019-01-31T23:46:00.765Z,-0.60
2019-01-31T23:48:29.643Z,-0.70
2019-01-31T23:50:58.449Z,-0.70
2019-01-31T23:53:27.257Z,-0.70
2019-01-31T23:55:56.153Z,-0.70
2019-01-31T23:58:25.045Z,-0.70
